Time;durP1;ratioP1;P1;durP2;ratioP2;P2;SDS_P1;SDS_P2;PMS_P1;PMS_P2;Temp;Humidity;BMP_temperature;BMP_pressure;BME280_temperature;BME280_humidity;BME280_pressure;Samples;Min_cycle;Max_cycle;Signal;HPM_P1;HPM_P2
2021/07/08 00:01:28;;;;;;;;;4.25;4.00;;;;;19.49;100.00;101671.25;5033847;28;45415;-75
2021/07/08 00:03:53;;;;;;;;;3.00;3.00;;;;;19.42;100.00;101656.50;5046668;28;45393;-76
2021/07/08 00:06:19;;;;;;;;;3.00;3.00;;;;;19.40;100.00;101653.91;5036628;28;46060;-76
2021/07/08 00:08:44;;;;;;;;;4.50;4.50;;;;;19.35;100.00;101649.69;5055009;28;45304;-75
2021/07/08 00:11:09;;;;;;;;;5.00;4.00;;;;;19.36;100.00;101646.13;5056105;28;45888;-76
2021/07/08 00:13:35;;;;;;;;;3.00;3.00;;;;;19.34;100.00;101651.47;5040946;28;45366;-75
2021/07/08 00:16:00;;;;;;;;;4.75;4.75;;;;;19.36;100.00;101652.28;5050936;28;46634;-75
2021/07/08 00:18:28;;;;;;;;;4.00;4.00;;;;;19.31;100.00;101645.44;5058535;28;45340;-76
2021/07/08 00:20:54;;;;;;;;;4.25;4.25;;;;;19.25;100.00;101643.88;5047436;28;45338;-76
2021/07/08 00:23:21;;;;;;;;;6.00;4.00;;;;;19.27;100.00;101650.84;5034967;28;45447;-76
2021/07/08 00:25:48;;;;;;;;;3.00;3.00;;;;;19.26;100.00;101651.75;5042884;28;48005;-76
2021/07/08 00:28:15;;;;;;;;;4.50;3.75;;;;;19.24;100.00;101653.59;5054188;28;45549;-77
2021/07/08 00:30:43;;;;;;;;;3.00;3.00;;;;;19.20;100.00;101643.16;5051595;28;45412;-77
2021/07/08 00:33:09;;;;;;;;;3.00;3.00;;;;;19.16;100.00;101639.75;5057103;28;45497;-77
2021/07/08 00:35:36;;;;;;;;;4.50;4.00;;;;;19.20;100.00;101648.44;5046812;28;46301;-76
2021/07/08 00:38:03;;;;;;;;;5.25;5.00;;;;;19.14;100.00;101638.09;5054309;28;45652;-76
2021/07/08 00:40:29;;;;;;;;;3.25;3.00;;;;;19.22;100.00;101655.41;5058677;28;45342;-76
2021/07/08 00:42:54;;;;;;;;;3.00;3.00;;;;;19.20;100.00;101651.09;5046386;28;45402;-77
2021/07/08 00:45:21;;;;;;;;;4.00;4.00;;;;;19.19;100.00;101660.81;5038361;28;46211;-77
2021/07/08 00:47:47;;;;;;;;;4.00;3.25;;;;;19.11;100.00;101641.72;5040150;28;45750;-76
2021/07/08 00:50:15;;;;;;;;;5.50;3.00;;;;;19.15;100.00;101661.84;5042027;28;45441;-76
2021/07/08 00:52:41;;;;;;;;;4.25;4.25;;;;;19.10;100.00;101663.81;5047251;28;45774;-76
2021/07/08 00:55:08;;;;;;;;;3.25;3.00;;;;;19.05;100.00;101662.25;5044028;28;46093;-77
2021/07/08 00:57:33;;;;;;;;;4.00;3.00;;;;;18.98;100.00;101653.63;5038192;28;45389;-77
2021/07/08 00:59:59;;;;;;;;;5.00;4.75;;;;;18.98;100.00;101656.28;5052804;28;45400;-77
2021/07/08 01:02:26;;;;;;;;;4.00;4.00;;;;;18.97;100.00;101659.84;5054194;28;45314;-77
2021/07/08 01:04:51;;;;;;;;;5.75;4.75;;;;;18.94;100.00;101654.66;5050111;28;46221;-77
2021/07/08 01:07:20;;;;;;;;;4.00;4.00;;;;;18.87;100.00;101646.06;5058079;28;45416;-77
2021/07/08 01:09:45;;;;;;;;;5.00;4.50;;;;;18.85;100.00;101650.56;5058243;28;45416;-77
2021/07/08 01:12:10;;;;;;;;;6.00;4.25;;;;;18.92;100.00;101660.00;5039828;28;45549;-76
2021/07/08 01:14:37;;;;;;;;;4.00;4.00;;;;;18.86;100.00;101651.41;5051273;28;45413;-77
2021/07/08 01:17:08;;;;;;;;;6.00;5.00;;;;;18.88;100.00;101662.81;5052085;28;45672;-77
2021/07/08 01:19:35;;;;;;;;;5.50;5.25;;;;;18.82;100.00;101652.44;5052669;28;45401;-77
2021/07/08 01:22:02;;;;;;;;;5.00;5.00;;;;;18.70;100.00;101635.19;5057162;28;45380;-77
2021/07/08 01:24:27;;;;;;;;;4.75;4.25;;;;;18.85;100.00;101665.56;5055307;28;45529;-77
2021/07/08 01:26:53;;;;;;;;;5.75;5.00;;;;;18.87;100.00;101666.38;5057829;28;45501;-77
2021/07/08 01:29:19;;;;;;;;;7.00;5.00;;;;;18.83;100.00;101662.13;5057820;28;45442;-76
2021/07/08 01:31:45;;;;;;;;;4.00;4.00;;;;;18.81;100.00;101662.16;5047425;28;45196;-77
2021/07/08 01:34:10;;;;;;;;;5.00;5.00;;;;;18.77;100.00;101660.50;5045230;28;45421;-77
2021/07/08 01:36:35;;;;;;;;;5.00;4.25;;;;;18.80;100.00;101676.31;5051753;28;45327;-76
2021/07/08 01:39:01;;;;;;;;;4.00;4.00;;;;;18.72;100.00;101662.47;5037829;28;45686;-77
2021/07/08 01:41:26;;;;;;;;;4.00;3.00;;;;;18.75;100.00;101675.56;5053624;28;45394;-75
2021/07/08 01:43:52;;;;;;;;;3.75;3.00;;;;;18.75;100.00;101675.56;5048705;28;45963;-75
2021/07/08 01:46:17;;;;;;;;;4.75;4.00;;;;;18.66;100.00;101670.59;5034273;28;45219;-76
2021/07/08 01:48:44;;;;;;;;;4.25;4.00;;;;;18.73;100.00;101680.06;5051115;28;45337;-76
2021/07/08 01:51:25;;;;;;;;;4.75;3.75;;;;;18.69;100.00;101678.44;5050848;28;45471;-76
2021/07/08 01:53:52;;;;;;;;;4.00;4.00;;;;;18.65;100.00;101672.38;5054283;28;46498;-76
2021/07/08 01:56:20;;;;;;;;;5.50;4.00;;;;;18.63;100.00;101679.50;5044672;28;45586;-76
2021/07/08 01:58:45;;;;;;;;;3.50;3.50;;;;;18.58;100.00;101686.69;5043050;28;45478;-76
2021/07/08 02:01:11;;;;;;;;;5.00;4.75;;;;;18.52;100.00;101688.66;5057535;28;45400;-76
2021/07/08 02:03:36;;;;;;;;;3.75;3.75;;;;;18.49;100.00;101688.75;5053272;28;46621;-76
2021/07/08 02:06:02;;;;;;;;;5.50;4.50;;;;;18.53;100.00;101690.38;5053462;28;45392;-75
2021/07/08 02:08:28;;;;;;;;;5.00;4.00;;;;;18.48;100.00;101693.19;5042765;28;45562;-77
2021/07/08 02:10:53;;;;;;;;;5.00;4.75;;;;;18.46;100.00;101697.66;5045169;28;45418;-76
2021/07/08 02:13:19;;;;;;;;;4.75;4.25;;;;;18.47;100.00;101695.88;5056120;28;47226;-76
2021/07/08 02:15:45;;;;;;;;;5.75;5.75;;;;;18.33;100.00;101678.69;5056245;28;45435;-76
2021/07/08 02:18:10;;;;;;;;;13.25;12.00;;;;;18.40;100.00;101694.34;5046579;28;45256;-76
2021/07/08 02:20:36;;;;;;;;;12.00;10.25;;;;;18.36;100.00;101686.53;5035894;28;46064;-77
2021/07/08 02:23:02;;;;;;;;;3.00;3.00;;;;;18.38;100.00;101689.13;5056762;28;45597;-77
2021/07/08 02:25:27;;;;;;;;;5.00;5.00;;;;;18.34;100.00;101676.91;5055954;28;45449;-77
2021/07/08 02:27:54;;;;;;;;;4.50;4.50;;;;;18.34;100.00;101682.19;5054680;28;45238;-77
2021/07/08 02:30:22;;;;;;;;;6.00;6.00;;;;;18.28;100.00;101675.28;5057235;28;45441;-77
2021/07/08 02:32:50;;;;;;;;;4.25;4.25;;;;;18.36;100.00;101690.94;5042699;28;45753;-77
2021/07/08 02:35:17;;;;;;;;;5.50;4.50;;;;;18.32;100.00;101676.06;5049004;28;45273;-76
2021/07/08 02:37:43;;;;;;;;;5.25;4.00;;;;;18.36;100.00;101686.53;5047775;28;45500;-76
2021/07/08 02:40:12;;;;;;;;;6.00;6.00;;;;;18.22;100.00;101658.78;5037278;28;45488;-76
2021/07/08 02:42:38;;;;;;;;;5.75;5.75;;;;;18.29;100.00;101673.53;5029982;28;47757;-76
2021/07/08 02:45:08;;;;;;;;;4.25;4.00;;;;;18.36;100.00;101693.59;5041867;28;45350;-76
2021/07/08 02:47:34;;;;;;;;;4.00;4.00;;;;;18.29;100.00;101679.66;5049594;28;45413;-76
2021/07/08 02:50:01;;;;;;;;;5.00;4.00;;;;;18.30;100.00;101684.03;5054580;28;45572;-75
2021/07/08 02:52:26;;;;;;;;;5.75;4.25;;;;;18.23;100.00;101676.34;5054787;28;48208;-76
2021/07/08 02:54:52;;;;;;;;;6.25;6.25;;;;;18.24;100.00;101678.97;5037805;28;45458;-76
2021/07/08 02:57:17;;;;;;;;;9.75;9.75;;;;;18.19;100.00;101672.94;5049202;28;45665;-75
2021/07/08 02:59:43;;;;;;;;;6.00;4.75;;;;;18.21;100.00;101683.47;5045717;28;45389;-75
2021/07/08 03:02:08;;;;;;;;;4.00;4.00;;;;;18.16;100.00;101678.34;5037002;28;45385;-75
2021/07/08 03:04:34;;;;;;;;;4.25;3.25;;;;;18.16;100.00;101686.25;5035902;28;45425;-75
2021/07/08 03:07:00;;;;;;;;;5.00;4.50;;;;;18.08;100.00;101680.31;5038803;28;45283;-75
2021/07/08 03:09:25;;;;;;;;;4.00;4.00;;;;;18.02;100.00;101684.03;5048743;28;45418;-75
2021/07/08 03:11:50;;;;;;;;;5.00;4.25;;;;;18.10;100.00;101706.72;5054901;28;46295;-75
2021/07/08 03:14:16;;;;;;;;;5.00;5.00;;;;;18.00;100.00;101680.56;5048528;28;45503;-75
2021/07/08 03:16:41;;;;;;;;;3.75;3.75;;;;;18.00;100.00;101698.19;5055682;28;45334;-76
2021/07/08 03:19:07;;;;;;;;;5.00;5.00;;;;;17.97;100.00;101695.66;5056031;28;45382;-76
2021/07/08 03:21:32;;;;;;;;;6.00;5.25;;;;;17.90;100.00;101694.97;5055164;28;45342;-76
2021/07/08 03:23:57;;;;;;;;;6.00;4.75;;;;;17.95;100.00;101702.75;5044683;28;45421;-76
2021/07/08 03:26:23;;;;;;;;;4.00;4.00;;;;;17.89;100.00;101690.59;5050117;28;45357;-76
2021/07/08 03:28:48;;;;;;;;;3.00;3.00;;;;;17.90;100.00;101702.03;5029268;28;45386;-76
2021/07/08 03:31:14;;;;;;;;;4.00;4.00;;;;;17.84;100.00;101686.34;5030590;28;47711;-75
2021/07/08 03:33:40;;;;;;;;;5.00;5.00;;;;;17.88;100.00;101698.56;5043620;28;45672;-75
2021/07/08 03:36:05;;;;;;;;;6.00;5.25;;;;;17.85;100.00;101696.88;5040949;28;45380;-76
2021/07/08 03:38:31;;;;;;;;;4.00;4.00;;;;;17.79;100.00;101699.69;5042318;28;45357;-75
2021/07/08 03:40:56;;;;;;;;;5.00;5.00;;;;;17.84;100.00;101710.13;5025443;28;45583;-76
2021/07/08 03:43:22;;;;;;;;;5.00;5.00;;;;;17.78;100.00;101708.53;5017239;28;45611;-76
2021/07/08 03:45:47;;;;;;;;;6.50;5.75;;;;;17.75;100.00;101711.25;5049844;28;45560;-76
2021/07/08 03:48:12;;;;;;;;;5.00;4.00;;;;;17.73;100.00;101718.38;5046097;28;45483;-76
2021/07/08 03:50:38;;;;;;;;;5.25;4.00;;;;;17.63;100.00;101706.28;5046997;28;45539;-75
2021/07/08 03:53:03;;;;;;;;;4.00;3.50;;;;;17.73;100.00;101727.16;5059137;28;45342;-75
2021/07/08 03:55:29;;;;;;;;;6.50;6.00;;;;;17.59;100.00;101709.91;5038833;28;45371;-76
2021/07/08 03:57:54;;;;;;;;;4.25;4.00;;;;;17.61;100.00;101719.53;5039090;28;45401;-76
2021/07/08 04:00:23;;;;;;;;;6.00;6.00;;;;;17.68;100.00;101733.50;5057958;28;46415;-76
2021/07/08 04:02:48;;;;;;;;;5.25;5.00;;;;;17.64;100.00;101729.13;5058838;28;45296;-75
2021/07/08 04:05:14;;;;;;;;;5.00;5.00;;;;;17.58;100.00;101724.91;5056330;28;45350;-75
2021/07/08 04:07:40;;;;;;;;;5.00;4.00;;;;;17.62;100.00;101736.25;5047736;28;45421;-75
2021/07/08 04:10:06;;;;;;;;;5.75;5.00;;;;;17.56;100.00;101739.06;5057916;28;45540;-76
2021/07/08 04:12:31;;;;;;;;;6.75;5.25;;;;;17.52;100.00;101738.28;5045214;28;45330;-76
2021/07/08 04:14:57;;;;;;;;;4.50;4.50;;;;;17.34;100.00;101718.50;5058376;28;45477;-75
2021/07/08 04:17:22;;;;;;;;;5.00;5.00;;;;;17.29;100.00;101715.13;5058946;28;45429;-76
2021/07/08 04:19:48;;;;;;;;;5.00;4.00;;;;;17.48;100.00;101751.59;5051707;28;45455;-76
2021/07/08 04:22:13;;;;;;;;;5.50;4.25;;;;;17.42;100.00;101744.69;5058155;28;45404;-76
2021/07/08 04:24:39;;;;;;;;;5.50;5.00;;;;;17.45;100.00;101753.44;5058582;28;45364;-76
2021/07/08 04:27:04;;;;;;;;;6.00;5.50;;;;;17.44;100.00;101756.97;5058582;28;45389;-76
2021/07/08 04:29:30;;;;;;;;;5.00;5.00;;;;;17.43;100.00;101752.59;5054271;28;46412;-76
2021/07/08 04:31:55;;;;;;;;;7.00;7.00;;;;;17.35;100.00;101743.13;5049970;28;45357;-75
2021/07/08 04:34:20;;;;;;;;;7.00;6.75;;;;;17.33;100.00;101739.66;5052292;28;45401;-76
2021/07/08 04:36:46;;;;;;;;;7.00;7.00;;;;;17.37;100.00;101754.50;5040426;28;45324;-76
2021/07/08 04:39:11;;;;;;;;;8.00;7.00;;;;;17.32;100.00;101743.22;5046347;28;46367;-76
2021/07/08 04:41:37;;;;;;;;;7.00;6.00;;;;;17.40;100.00;101755.28;5045123;28;45461;-76
2021/07/08 04:44:02;;;;;;;;;5.75;5.75;;;;;17.24;100.00;101722.31;5058134;28;45248;-76
2021/07/08 04:46:28;;;;;;;;;6.00;5.75;;;;;17.43;100.00;101754.38;5058157;28;45485;-76
2021/07/08 04:48:54;;;;;;;;;6.50;5.25;;;;;17.47;100.00;101747.25;5050296;28;46500;-76
2021/07/08 04:51:20;;;;;;;;;6.50;6.00;;;;;17.53;100.00;101747.06;5054586;28;45658;-76
2021/07/08 04:53:45;;;;;;;;;6.50;6.25;;;;;17.58;100.00;101747.78;5051826;28;45472;-75
2021/07/08 04:56:11;;;;;;;;;8.00;6.00;;;;;17.58;100.00;101748.66;5041746;28;45408;-76
2021/07/08 04:58:36;;;;;;;;;5.50;5.25;;;;;17.63;100.00;101759.09;5039234;28;47222;-76
2021/07/08 05:01:02;;;;;;;;;4.75;4.75;;;;;17.74;100.00;101760.59;5057053;28;45487;-76
2021/07/08 05:03:27;;;;;;;;;6.25;5.00;;;;;17.75;100.00;101754.41;5057562;28;45520;-76
2021/07/08 05:05:53;;;;;;;;;6.25;6.25;;;;;17.89;100.00;101758.44;5057889;28;45333;-76
2021/07/08 05:08:19;;;;;;;;;6.00;6.00;;;;;17.97;100.00;101769.66;5046452;28;45373;-76
2021/07/08 05:10:44;;;;;;;;;7.00;7.00;;;;;17.95;100.00;101752.97;5039072;28;45472;-76
2021/07/08 05:13:09;;;;;;;;;5.00;4.75;;;;;18.07;100.00;101755.25;5057073;28;45818;-76
2021/07/08 05:15:36;;;;;;;;;7.50;5.75;;;;;18.16;100.00;101764.69;5057590;28;45413;-76
2021/07/08 05:18:01;;;;;;;;;8.00;6.50;;;;;18.25;100.00;101760.00;5029917;28;47183;-76
2021/07/08 05:20:27;;;;;;;;;6.75;6.00;;;;;18.39;100.00;101769.31;5043392;28;45476;-75
2021/07/08 05:25:43;;;;;;;;;7.75;7.25;;;;;18.61;100.00;101773.03;4989586;28;45563;-76
2021/07/08 05:28:13;;;;;;;;;6.00;6.00;;;;;18.62;100.00;101764.19;4994411;28;45535;-77
2021/07/08 05:30:39;;;;;;;;;8.00;7.50;;;;;18.81;100.00;101777.72;4998417;28;45249;-76
2021/07/08 05:33:05;;;;;;;;;8.50;7.25;;;;;18.86;100.00;101783.72;4995451;28;45371;-77
2021/07/08 05:35:31;;;;;;;;;8.00;7.00;;;;;18.89;100.00;101778.34;4995478;28;45571;-77
2021/07/08 05:37:56;;;;;;;;;5.25;5.25;;;;;18.95;100.00;101778.13;4995044;28;46222;-76
2021/07/08 05:40:22;;;;;;;;;6.75;5.75;;;;;18.99;100.00;101774.47;4998284;28;45513;-77
2021/07/08 05:42:48;;;;;;;;;7.25;7.25;;;;;19.03;100.00;101768.19;5001497;28;45580;-76
2021/07/08 05:45:13;;;;;;;;;7.00;6.25;;;;;19.14;100.00;101768.66;5000553;28;45446;-75
2021/07/08 05:47:39;;;;;;;;;8.00;7.50;;;;;19.35;100.00;101779.47;5000327;28;46413;-76
2021/07/08 05:50:05;;;;;;;;;7.75;7.75;;;;;19.47;100.00;101773.75;5008350;28;45466;-77
2021/07/08 05:52:31;;;;;;;;;8.25;8.00;;;;;19.62;100.00;101777.66;4999523;28;45296;-76
2021/07/08 05:54:57;;;;;;;;;7.25;7.00;;;;;19.67;100.00;101767.75;4983442;28;45478;-76
2021/07/08 05:57:23;;;;;;;;;9.25;7.75;;;;;19.87;100.00;101778.50;4994599;28;47390;-76
2021/07/08 05:59:48;;;;;;;;;8.00;7.25;;;;;19.91;100.00;101771.31;5008586;28;45396;-76
2021/07/08 06:02:14;;;;;;;;;7.50;7.25;;;;;20.02;100.00;101783.28;5021848;28;45472;-76
2021/07/08 06:04:39;;;;;;;;;9.00;8.50;;;;;20.13;100.00;101791.66;5048216;28;45243;-76
2021/07/08 06:07:04;;;;;;;;;6.75;6.75;;;;;20.19;100.00;101795.91;5033187;28;48250;-76
2021/07/08 06:09:30;;;;;;;;;6.25;6.00;;;;;20.16;100.00;101785.41;5048147;28;45318;-77
2021/07/08 06:11:56;;;;;;;;;7.00;7.00;;;;;20.23;100.00;101804.59;5055202;28;45404;-76
2021/07/08 06:14:21;;;;;;;;;7.50;6.75;;;;;20.10;100.00;101780.31;5046959;28;45335;-76
2021/07/08 06:16:46;;;;;;;;;8.75;7.00;;;;;20.22;100.00;101809.06;5055123;28;46292;-77
2021/07/08 06:19:12;;;;;;;;;7.50;5.75;;;;;20.14;100.00;101804.03;5051292;28;45392;-76
2021/07/08 06:21:37;;;;;;;;;7.00;6.00;;;;;20.17;100.00;101821.63;5050328;28;45298;-76
2021/07/08 06:24:03;;;;;;;;;8.00;7.75;;;;;20.11;100.00;101820.03;5056519;28;45508;-76
2021/07/08 06:26:28;;;;;;;;;6.00;6.00;;;;;20.03;100.00;101819.47;5056002;28;46082;-76
2021/07/08 06:28:54;;;;;;;;;7.25;5.75;;;;;19.86;100.00;101803.28;5055566;28;45395;-76
2021/07/08 06:31:19;;;;;;;;;6.00;6.00;;;;;19.84;100.00;101824.56;5052996;28;45987;-76
2021/07/08 06:33:44;;;;;;;;;6.75;5.75;;;;;19.72;100.00;101811.75;5047826;28;45347;-76
2021/07/08 06:36:10;;;;;;;;;5.75;5.75;;;;;19.75;100.00;101830.19;5035819;28;46159;-76
2021/07/08 06:38:36;;;;;;;;;6.75;6.00;;;;;19.64;100.00;101811.13;5036552;28;45460;-77
2021/07/08 06:41:01;;;;;;;;;6.00;6.00;;;;;19.74;100.00;101823.16;5030988;28;45443;-76
2021/07/08 06:43:27;;;;;;;;;4.75;4.75;;;;;19.81;100.00;101824.66;5037267;28;45171;-75
2021/07/08 06:45:52;;;;;;;;;6.00;6.00;;;;;19.85;100.00;101834.22;5036093;28;46009;-76
2021/07/08 06:48:17;;;;;;;;;7.25;6.25;;;;;19.73;100.00;101817.91;5055847;28;45339;-76
2021/07/08 06:50:44;;;;;;;;;7.25;6.00;;;;;19.82;100.00;101831.69;5056402;28;45727;-76
2021/07/08 06:53:10;;;;;;;;;7.00;6.00;;;;;19.85;100.00;101839.53;5055910;28;45314;-76
2021/07/08 06:55:37;;;;;;;;;6.00;6.00;;;;;19.85;100.00;101844.84;5055957;28;45488;-76
2021/07/08 06:58:02;;;;;;;;;7.00;6.00;;;;;19.85;100.00;101844.84;5036967;28;45698;-76
2021/07/08 07:00:34;;;;;;;;;6.50;6.00;;;;;19.83;100.00;101848.47;5055816;28;45382;-76
2021/07/08 07:03:00;;;;;;;;;11.00;10.00;;;;;19.81;100.00;101861.78;5056126;28;45544;-76
2021/07/08 07:05:27;;;;;;;;;6.00;5.00;;;;;19.81;100.00;101859.13;5055811;28;46352;-76
2021/07/08 07:07:54;;;;;;;;;10.00;7.00;;;;;19.76;100.00;101861.06;5037627;28;45644;-76
2021/07/08 07:10:21;;;;;;;;;7.25;7.25;;;;;19.58;100.00;101840.50;5055018;28;45523;-76
2021/07/08 07:12:48;;;;;;;;;6.50;6.50;;;;;19.61;100.00;101856.28;5055936;28;45381;-76
2021/07/08 07:15:19;;;;;;;;;8.00;8.00;;;;;19.62;100.00;101860.66;5055025;28;45507;-75
2021/07/08 07:17:47;;;;;;;;;8.50;7.00;;;;;19.58;100.00;101859.03;5055805;28;45653;-75
2021/07/08 07:20:14;;;;;;;;;8.25;6.50;;;;;19.54;100.00;101847.69;5052394;28;45508;-75
2021/07/08 07:22:44;;;;;;;;;6.00;6.00;;;;;19.63;100.00;101862.41;5041578;28;45738;-76
2021/07/08 07:25:10;;;;;;;;;6.75;6.75;;;;;19.69;100.00;101856.91;5059099;28;47100;-76
2021/07/08 07:27:35;;;;;;;;;7.50;7.00;;;;;19.69;100.00;101853.38;5047505;28;45473;-76
2021/07/08 07:30:05;;;;;;;;;10.00;7.00;;;;;19.76;100.00;101860.19;5040475;28;45409;-76
2021/07/08 07:32:31;;;;;;;;;9.25;7.00;;;;;19.78;100.00;101864.53;5041313;28;45437;-76
2021/07/08 07:34:57;;;;;;;;;8.00;7.00;;;;;19.69;100.00;101859.56;5040364;28;47399;-76
2021/07/08 07:37:23;;;;;;;;;7.00;6.00;;;;;19.74;100.00;101867.34;5053975;28;45405;-76
2021/07/08 07:39:48;;;;;;;;;6.75;6.25;;;;;19.72;100.00;101872.69;5056274;28;45769;-75
2021/07/08 07:42:13;;;;;;;;;7.25;6.25;;;;;19.77;100.00;101876.06;5051846;28;45400;-76
2021/07/08 07:44:43;;;;;;;;;7.25;6.50;;;;;19.74;100.00;101870.84;5058569;28;46117;-75
2021/07/08 07:47:10;;;;;;;;;7.00;6.00;;;;;19.74;100.00;101870.00;5058337;28;45645;-76
2021/07/08 07:49:36;;;;;;;;;8.00;6.50;;;;;19.77;100.00;101876.06;5058538;28;45510;-76
2021/07/08 07:52:01;;;;;;;;;7.00;6.50;;;;;19.78;100.00;101883.09;5040713;28;45525;-76
2021/07/08 07:54:28;;;;;;;;;7.25;6.00;;;;;19.76;100.00;101869.03;5058722;28;46572;-76
2021/07/08 07:56:54;;;;;;;;;5.75;5.75;;;;;19.83;100.00;101867.88;5054783;28;45518;-76
2021/07/08 07:59:19;;;;;;;;;4.00;4.00;;;;;19.89;100.00;101874.75;5057045;28;45488;-75
2021/07/08 08:01:44;;;;;;;;;6.50;6.50;;;;;20.02;100.00;101884.00;5053877;28;45296;-74
2021/07/08 08:04:10;;;;;;;;;8.50;6.00;;;;;20.09;100.00;101882.00;5053078;28;46551;-76
2021/07/08 08:09:19;;;;;;;;;5.50;5.50;;;;;20.18;100.00;101871.94;5055587;28;45479;-76
2021/07/08 08:11:44;;;;;;;;;10.50;8.50;;;;;20.22;100.00;101874.47;5053131;28;45524;-75
2021/07/08 08:14:09;;;;;;;;;6.75;6.25;;;;;20.25;100.00;101867.28;5053105;28;45410;-76
2021/07/08 08:16:36;;;;;;;;;6.25;6.25;;;;;20.35;100.00;101878.41;5053160;28;45194;-75
2021/07/08 08:19:01;;;;;;;;;6.50;6.50;;;;;20.41;100.00;101879.09;5053003;28;45199;-75
2021/07/08 08:21:27;;;;;;;;;8.00;7.00;;;;;20.38;100.00;101876.53;5057315;28;45341;-77
2021/07/08 08:23:52;;;;;;;;;7.00;6.00;;;;;20.47;100.00;101875.34;5052915;28;46796;-76
2021/07/08 08:26:17;;;;;;;;;6.25;6.25;;;;;20.59;100.00;101879.31;5057791;28;45247;-76
2021/07/08 08:28:43;;;;;;;;;4.75;4.50;;;;;20.60;100.00;101868.66;5057577;28;45470;-76
2021/07/08 08:31:09;;;;;;;;;9.25;6.00;;;;;20.72;100.00;101869.97;5038652;28;45572;-76
2021/07/08 08:33:34;;;;;;;;;7.25;7.00;;;;;20.85;100.00;101871.25;5037783;28;45376;-76
2021/07/08 08:36:00;;;;;;;;;6.00;6.00;;;;;20.87;100.00;101864.06;5020037;28;45372;-76
2021/07/08 08:38:25;;;;;;;;;6.75;6.25;;;;;21.09;100.00;101877.38;5048413;28;45470;-76
2021/07/08 08:40:52;;;;;;;;;5.50;5.25;;;;;21.13;100.00;101857.72;5046937;28;45375;-76
2021/07/08 08:43:18;;;;;;;;;4.00;3.50;;;;;21.27;100.00;101847.41;5055496;28;46561;-76
2021/07/08 08:45:46;;;;;;;;;6.00;5.25;;;;;21.51;100.00;101864.16;5058342;28;46340;-76
2021/07/08 08:48:12;;;;;;;;;4.25;4.25;;;;;21.66;100.00;101874.13;5043517;28;45412;-76
2021/07/08 08:50:40;;;;;;;;;5.50;4.75;;;;;21.75;100.00;101858.75;5058173;28;45402;-77
2021/07/08 08:53:06;;;;;;;;;4.00;3.50;;;;;21.89;100.00;101861.66;5057725;28;46217;-76
2021/07/08 08:55:36;;;;;;;;;4.50;4.25;;;;;22.02;100.00;101865.50;5051701;28;45551;-76
2021/07/08 08:58:03;;;;;;;;;4.50;3.75;;;;;22.12;100.00;101874.81;5038037;28;45523;-77
2021/07/08 09:00:29;;;;;;;;;7.50;6.25;;;;;22.23;100.00;101877.88;5056759;28;45357;-77
2021/07/08 09:03:04;;;;;;;;;4.25;3.50;;;;;22.45;100.00;101867.13;5052780;28;46405;-76
2021/07/08 09:05:30;;;;;;;;;5.25;5.00;;;;;22.81;100.00;101869.00;5052517;28;45603;-76
2021/07/08 09:08:15;;;;;;;;;4.50;4.50;;;;;23.14;100.00;101850.59;5057627;28;45390;-76
2021/07/08 09:10:41;;;;;;;;;5.00;4.00;;;;;23.52;100.00;101854.84;5039281;28;46040;-75
2021/07/08 09:13:07;;;;;;;;;4.25;4.25;;;;;23.86;100.00;101855.84;5057558;28;46172;-76
2021/07/08 09:15:33;;;;;;;;;5.00;5.00;;;;;23.96;100.00;101850.88;5053661;28;45404;-76
2021/07/08 09:17:58;;;;;;;;;4.00;3.50;;;;;23.99;100.00;101840.94;5036803;28;45487;-76
2021/07/08 09:20:24;;;;;;;;;6.00;5.00;;;;;23.98;100.00;101857.84;5052800;28;45338;-75
2021/07/08 09:22:49;;;;;;;;;5.00;3.75;;;;;23.99;100.00;101840.94;5057288;28;45975;-75
2021/07/08 09:25:22;;;;;;;;;5.00;4.00;;;;;24.07;100.00;101851.19;5057374;28;45366;-75
2021/07/08 09:28:14;;;;;;;;;4.00;3.00;;;;;24.24;100.00;101858.28;5052044;28;45556;-75
2021/07/08 09:30:41;;;;;;;;;3.00;3.00;;;;;24.28;100.00;101851.84;5041782;28;45507;-76
2021/07/08 09:33:35;;;;;;;;;4.25;3.75;;;;;24.27;100.00;101852.78;5041963;28;46086;-76
2021/07/08 09:36:08;;;;;;;;;5.00;4.25;;;;;24.20;100.00;101835.34;5037423;28;45416;-76
2021/07/08 09:38:34;;;;;;;;;4.75;4.00;;;;;24.37;100.00;101852.22;5037206;28;45302;-75
2021/07/08 09:41:05;;;;;;;;;2.50;2.00;;;;;24.50;100.00;101848.91;5036980;28;45451;-76
2021/07/08 09:43:31;;;;;;;;;3.00;2.00;;;;;24.58;100.00;101850.19;5054701;28;46267;-75
2021/07/08 09:45:56;;;;;;;;;3.00;3.00;;;;;24.53;100.00;101828.22;5056863;28;45272;-76
2021/07/08 09:48:22;;;;;;;;;4.00;4.00;;;;;24.73;100.00;101840.47;5053696;28;45579;-75
2021/07/08 09:50:47;;;;;;;;;3.25;2.75;;;;;25.01;100.00;101839.81;5049111;28;45303;-76
2021/07/08 09:58:50;;;;;;;;;2.25;2.25;;;;;26.01;100.00;101832.09;5039183;28;45465;-76
2021/07/08 10:01:16;;;;;;;;;3.25;2.00;;;;;26.47;100.00;101835.47;5037564;28;45488;-76
2021/07/08 10:03:44;;;;;;;;;3.00;2.50;;;;;27.11;100.00;101845.59;5049140;28;46431;-76
2021/07/08 10:06:11;;;;;;;;;2.25;2.25;;;;;27.92;100.00;101832.06;5049031;28;45371;-76
2021/07/08 10:08:37;;;;;;;;;3.00;3.00;;;;;28.75;100.00;101835.09;5054416;28;45471;-75
2021/07/08 10:11:04;;;;;;;;;2.00;2.00;;;;;29.55;99.37;101836.25;5029299;28;45522;-76
2021/07/08 10:13:32;;;;;;;;;2.25;1.25;;;;;30.18;100.00;101844.84;5044212;28;45446;-76
2021/07/08 10:16:00;;;;;;;;;2.25;2.00;;;;;31.26;100.00;101844.09;5045386;28;45386;-76
2021/07/08 10:18:29;;;;;;;;;3.00;3.00;;;;;32.85;93.42;101841.00;5055665;28;45740;-77
2021/07/08 10:20:55;;;;;;;;;4.50;2.75;;;;;32.47;88.77;101833.59;5056587;28;45333;-76
2021/07/08 10:23:21;;;;;;;;;3.00;3.00;;;;;31.35;93.18;101843.28;5055514;28;46215;-75
2021/07/08 10:25:48;;;;;;;;;3.75;2.75;;;;;30.25;96.20;101835.28;5052249;28;45349;-75
2021/07/08 10:28:15;;;;;;;;;4.00;3.50;;;;;29.38;100.00;101842.00;5046528;28;45532;-75
2021/07/08 10:30:40;;;;;;;;;4.75;4.75;;;;;28.57;100.00;101844.47;5056754;28;45492;-74
2021/07/08 10:33:06;;;;;;;;;6.00;4.50;;;;;27.79;100.00;101851.78;5052563;28;46223;-75
2021/07/08 10:35:45;;;;;;;;;2.00;1.75;;;;;27.14;100.00;101857.94;5036411;28;45401;-76
2021/07/08 10:38:40;;;;;;;;;3.25;3.25;;;;;26.53;100.00;101862.75;5038848;28;45417;-77
2021/07/08 10:41:11;;;;;;;;;5.25;4.50;;;;;26.31;100.00;101862.34;5047987;28;45472;-76
2021/07/08 10:43:43;;;;;;;;;4.75;4.00;;;;;26.29;100.00;101860.72;5035951;28;45460;-75
2021/07/08 10:46:11;;;;;;;;;6.25;3.25;;;;;26.21;100.00;101851.31;5035991;28;45442;-77
2021/07/08 10:48:47;;;;;;;;;3.50;3.00;;;;;26.22;100.00;101846.81;5036090;28;45485;-75
2021/07/08 10:51:18;;;;;;;;;4.50;3.25;;;;;26.33;100.00;101857.75;5048651;28;45336;-75
2021/07/08 10:53:45;;;;;;;;;4.50;4.25;;;;;26.34;100.00;101854.13;5036470;28;45753;-75
2021/07/08 10:56:13;;;;;;;;;3.00;3.00;;;;;26.31;100.00;101862.34;5036730;28;45350;-76
2021/07/08 10:58:52;;;;;;;;;4.00;3.25;;;;;26.24;100.00;101855.63;5054221;28;45434;-76
2021/07/08 11:01:23;;;;;;;;;5.00;4.50;;;;;26.11;100.00;101865.38;5044778;28;45146;-75
2021/07/08 11:03:49;;;;;;;;;6.25;6.00;;;;;25.94;100.00;101863.72;5049754;28;46370;-76
2021/07/08 11:06:25;;;;;;;;;5.00;4.75;;;;;25.86;100.00;101871.38;5045446;28;45422;-75
2021/07/08 11:08:55;;;;;;;;;5.25;5.00;;;;;25.73;100.00;101859.69;5054136;28;45278;-76
2021/07/08 11:11:21;;;;;;;;;5.00;4.00;;;;;25.76;100.00;101860.34;5054399;28;45587;-75
2021/07/08 11:13:51;;;;;;;;;4.50;4.50;;;;;25.78;100.00;101861.13;5054202;28;45656;-76
2021/07/08 11:16:42;;;;;;;;;4.00;3.50;;;;;25.78;100.00;101862.94;5054605;28;45491;-75
2021/07/08 11:19:09;;;;;;;;;2.25;1.75;;;;;25.85;100.00;101865.16;5055819;28;46356;-75
2021/07/08 11:21:50;;;;;;;;;5.25;4.75;;;;;26.08;100.00;101870.94;5054244;28;45433;-76
2021/07/08 11:24:19;;;;;;;;;5.00;5.00;;;;;26.19;100.00;101852.38;5036348;28;47086;-76
2021/07/08 11:26:59;;;;;;;;;4.50;4.25;;;;;26.51;100.00;101879.88;5055795;28;45543;-76